createdAt,value
2017-11-09T00:02:07.839Z,27.80
2017-11-09T00:04:57.582Z,26.80
2017-11-09T00:07:26.460Z,23.30
2017-11-09T00:09:55.320Z,28.27
2017-11-09T00:12:24.183Z,27.40
2017-11-09T00:14:54.842Z,29.20
2017-11-09T00:17:23.718Z,23.47
2017-11-09T00:19:52.583Z,24.80
2017-11-09T00:22:21.476Z,26.47
2017-11-09T00:24:50.339Z,24.20
2017-11-09T00:27:19.221Z,29.93
2017-11-09T00:29:48.114Z,24.80
2017-11-09T00:32:17.027Z,26.30
2017-11-09T00:34:45.906Z,32.33
2017-11-09T00:37:14.807Z,28.73
2017-11-09T00:39:43.662Z,28.60
2017-11-09T00:42:12.616Z,27.17
2017-11-09T00:44:41.481Z,26.20
2017-11-09T00:47:10.454Z,25.37
2017-11-09T00:49:39.387Z,29.20
2017-11-09T00:52:08.271Z,34.83
2017-11-09T00:54:37.140Z,27.90
2017-11-09T00:57:07.752Z,28.77
2017-11-09T00:59:36.640Z,28.23
2017-11-09T01:02:05.498Z,24.57
2017-11-09T01:04:34.377Z,25.33
2017-11-09T01:07:03.227Z,29.83
2017-11-09T01:09:32.095Z,25.87
2017-11-09T01:12:00.957Z,23.30
2017-11-09T01:14:29.819Z,25.43
2017-11-09T01:16:58.750Z,24.27
2017-11-09T01:19:27.609Z,23.00
2017-11-09T01:21:56.492Z,29.50
2017-11-09T01:24:25.357Z,27.07
2017-11-09T01:26:54.228Z,25.30
2017-11-09T01:29:23.128Z,25.10
2017-11-09T01:31:51.994Z,28.53
2017-11-09T01:34:21.571Z,31.30
2017-11-09T01:36:50.492Z,27.20
2017-11-09T01:39:19.355Z,25.57
2017-11-09T01:41:48.230Z,34.10
2017-11-09T01:44:17.134Z,29.63
2017-11-09T01:46:45.996Z,29.17
2017-11-09T01:49:14.904Z,28.60
2017-11-09T01:51:43.770Z,29.63
2017-11-09T01:54:12.670Z,25.90
2017-11-09T01:56:41.547Z,28.50
2017-11-09T01:59:10.450Z,27.30
2017-11-09T02:01:39.322Z,30.50
2017-11-09T02:04:08.250Z,28.40
2017-11-09T02:06:41.959Z,27.80
2017-11-09T02:09:10.835Z,29.50
2017-11-09T02:11:39.713Z,33.40
2017-11-09T02:14:08.615Z,24.90
2017-11-09T02:16:37.479Z,30.87
2017-11-09T02:19:06.346Z,26.13
2017-11-09T02:21:35.604Z,25.83
2017-11-09T02:24:04.500Z,25.37
2017-11-09T02:26:33.421Z,27.13
2017-11-09T02:29:02.284Z,24.53
2017-11-09T02:31:31.169Z,28.27
2017-11-09T02:34:00.040Z,28.60
2017-11-09T02:36:28.925Z,24.37
2017-11-09T02:38:57.799Z,27.60
2017-11-09T02:41:26.726Z,28.83
2017-11-09T02:43:55.612Z,28.03
2017-11-09T02:46:24.473Z,23.57
2017-11-09T02:48:53.377Z,27.30
2017-11-09T02:51:22.240Z,25.17
2017-11-09T02:53:51.141Z,24.03
2017-11-09T02:56:20.004Z,24.90
2017-11-09T02:58:48.878Z,24.37
2017-11-09T03:01:17.734Z,23.27
2017-11-09T03:03:46.614Z,24.60
2017-11-09T03:06:15.502Z,23.73
2017-11-09T03:08:44.382Z,27.20
2017-11-09T03:11:13.243Z,26.57
2017-11-09T03:13:42.116Z,24.70
2017-11-09T03:16:10.982Z,22.70
2017-11-09T03:18:39.911Z,23.30
2017-11-09T03:21:08.777Z,25.37
2017-11-09T03:23:37.660Z,29.60
2017-11-09T03:26:06.535Z,26.20
2017-11-09T03:28:35.436Z,26.30
2017-11-09T03:31:04.322Z,25.07
2017-11-09T03:33:33.207Z,27.67
2017-11-09T03:36:02.088Z,33.90
2017-11-09T03:38:30.955Z,28.40
2017-11-09T03:40:59.862Z,25.27
2017-11-09T03:43:28.715Z,25.13
2017-11-09T03:45:57.599Z,27.53
2017-11-09T03:48:26.450Z,28.47
2017-11-09T03:50:55.348Z,28.17
2017-11-09T03:53:24.217Z,28.00
2017-11-09T03:55:53.108Z,32.40
2017-11-09T03:58:21.975Z,32.77
2017-11-09T04:00:50.854Z,26.40
2017-11-09T04:03:19.721Z,27.47
2017-11-09T04:05:48.594Z,28.50
2017-11-09T04:08:17.485Z,25.23
2017-11-09T04:10:46.413Z,27.90
2017-11-09T04:13:15.297Z,27.50
2017-11-09T04:15:44.192Z,26.37
2017-11-09T04:18:13.077Z,27.50
2017-11-09T04:20:41.952Z,27.70
2017-11-09T04:23:10.819Z,27.67
2017-11-09T04:25:39.742Z,26.70
2017-11-09T04:28:08.639Z,25.20
2017-11-09T04:30:37.546Z,26.97
2017-11-09T04:33:06.447Z,28.87
2017-11-09T04:35:35.333Z,35.10
2017-11-09T04:38:04.208Z,27.50
2017-11-09T04:40:33.073Z,30.87
2017-11-09T04:43:01.961Z,29.23
2017-11-09T04:45:30.851Z,26.13
2017-11-09T04:47:59.752Z,27.03
2017-11-09T04:50:28.610Z,29.03
2017-11-09T04:52:57.619Z,23.07
2017-11-09T04:55:26.472Z,28.83
2017-11-09T04:57:55.388Z,23.93
2017-11-09T05:00:24.298Z,30.40
2017-11-09T05:02:53.174Z,32.13
2017-11-09T05:05:22.074Z,26.57
2017-11-09T05:07:50.933Z,28.30
2017-11-09T05:10:19.801Z,29.17
2017-11-09T05:12:48.684Z,22.87
2017-11-09T05:15:17.567Z,27.20
2017-11-09T05:17:46.424Z,31.00
2017-11-09T05:20:15.292Z,30.70
2017-11-09T05:22:44.179Z,35.73
2017-11-09T05:25:13.099Z,30.90
2017-11-09T05:27:41.960Z,29.93
2017-11-09T05:30:10.857Z,28.93
2017-11-09T05:32:39.746Z,27.70
2017-11-09T05:35:08.613Z,24.00
2017-11-09T05:37:37.491Z,23.90
2017-11-09T05:40:06.357Z,31.10
2017-11-09T05:42:35.237Z,27.30
2017-11-09T05:45:04.115Z,26.57
2017-11-09T05:47:33.020Z,26.17
2017-11-09T05:50:01.919Z,23.70
2017-11-09T05:52:30.821Z,26.43
2017-11-09T05:54:59.679Z,26.90
2017-11-09T05:57:28.640Z,24.90
2017-11-09T05:59:57.534Z,23.70
2017-11-09T06:02:26.406Z,24.53
2017-11-09T06:04:55.303Z,23.20
2017-11-09T06:07:24.156Z,24.93
2017-11-09T06:09:53.048Z,26.57
2017-11-09T06:12:21.902Z,26.67
2017-11-09T06:14:50.778Z,27.73
2017-11-09T06:17:19.690Z,27.30
2017-11-09T06:19:48.597Z,29.40
2017-11-09T06:22:17.472Z,29.57
2017-11-09T06:24:46.354Z,30.97
2017-11-09T06:27:15.275Z,29.10
2017-11-09T06:29:44.170Z,30.17
2017-11-09T06:32:13.078Z,29.27
2017-11-09T06:34:41.975Z,27.13
2017-11-09T06:37:10.893Z,30.03
2017-11-09T06:39:39.764Z,26.73
2017-11-09T06:42:08.672Z,27.10
2017-11-09T06:44:37.589Z,31.70
2017-11-09T06:47:06.473Z,31.07
2017-11-09T06:49:35.377Z,32.97
2017-11-09T06:52:04.305Z,32.37
2017-11-09T06:54:33.178Z,33.37
2017-11-09T06:57:02.073Z,28.10
2017-11-09T06:59:30.941Z,29.53
2017-11-09T07:01:59.812Z,31.67
2017-11-09T07:04:28.688Z,32.53
2017-11-09T07:06:57.563Z,32.93
2017-11-09T07:09:26.468Z,32.40
2017-11-09T07:11:55.325Z,29.67
2017-11-09T07:14:24.204Z,30.53
2017-11-09T07:16:53.079Z,30.03
2017-11-09T07:19:21.971Z,29.47
2017-11-09T07:21:50.820Z,27.50
2017-11-09T07:24:19.702Z,28.03
2017-11-09T07:26:48.577Z,31.70
2017-11-09T07:29:17.548Z,31.77
2017-11-09T07:31:46.416Z,32.97
2017-11-09T07:34:15.340Z,33.30
2017-11-09T07:36:44.219Z,29.97
2017-11-09T07:39:13.108Z,39.00
2017-11-09T07:41:41.986Z,33.23
2017-11-09T07:44:10.952Z,31.30
2017-11-09T07:46:40.118Z,31.20
2017-11-09T07:49:09.018Z,32.43
2017-11-09T07:51:37.911Z,28.48
2017-11-09T07:54:06.876Z,34.03
2017-11-09T07:56:35.742Z,34.50
2017-11-09T07:59:04.661Z,30.27
2017-11-09T08:01:33.542Z,28.33
2017-11-09T08:04:02.446Z,31.73
2017-11-09T08:06:31.313Z,89.00
2017-11-09T08:09:00.226Z,65.93
2017-11-09T08:11:29.112Z,50.83
2017-11-09T08:13:57.996Z,31.20
2017-11-09T08:16:26.860Z,32.00
2017-11-09T08:18:55.768Z,27.70
2017-11-09T08:21:24.627Z,30.17
2017-11-09T08:23:53.575Z,28.13
2017-11-09T08:26:23.109Z,32.43
2017-11-09T08:28:53.529Z,29.23
2017-11-09T08:31:24.779Z,32.80
2017-11-09T08:33:53.627Z,36.63
2017-11-09T08:36:22.496Z,30.07
2017-11-09T08:38:51.348Z,29.13
2017-11-09T08:41:20.234Z,28.97
2017-11-09T08:43:49.091Z,27.03
2017-11-09T08:46:17.967Z,25.50
2017-11-09T08:48:46.832Z,26.20
2017-11-09T08:51:15.694Z,32.40
2017-11-09T08:53:44.584Z,26.23
2017-11-09T08:56:13.465Z,22.70
2017-11-09T08:58:43.075Z,29.60
2017-11-09T09:01:11.999Z,25.10
2017-11-09T09:03:40.867Z,25.00
2017-11-09T09:06:09.729Z,21.70
2017-11-09T09:08:38.664Z,21.90
2017-11-09T09:11:07.528Z,20.93
2017-11-09T09:13:36.412Z,30.30
2017-11-09T09:16:05.282Z,29.33
2017-11-09T09:18:34.172Z,34.90
2017-11-09T09:21:08.891Z,56.13
2017-11-09T09:23:41.514Z,25.87
2017-11-09T09:26:20.301Z,31.47
2017-11-09T09:29:03.098Z,19.20
2017-11-09T09:31:32.934Z,23.50
2017-11-09T09:34:02.643Z,25.23
2017-11-09T09:36:33.995Z,19.23
2017-11-09T09:39:04.935Z,19.27
2017-11-09T09:41:33.790Z,30.73
2017-11-09T09:44:02.677Z,23.93
2017-11-09T09:46:31.558Z,24.80
2017-11-09T09:49:00.618Z,24.13
2017-11-09T09:51:29.484Z,22.37
2017-11-09T09:53:58.387Z,20.13
2017-11-09T09:56:27.267Z,23.53
2017-11-09T09:58:56.147Z,20.97
2017-11-09T10:01:25.033Z,24.10
2017-11-09T10:03:53.908Z,31.90
2017-11-09T10:06:22.793Z,20.30
2017-11-09T10:08:51.675Z,17.80
2017-11-09T10:11:20.542Z,14.33
2017-11-09T10:13:49.417Z,19.30
2017-11-09T10:16:18.287Z,14.83
2017-11-09T10:18:47.160Z,16.20
2017-11-09T10:21:16.054Z,23.50
2017-11-09T10:23:44.930Z,14.20
2017-11-09T10:26:13.832Z,16.90
2017-11-09T10:28:42.716Z,18.40
2017-11-09T10:31:11.577Z,10.67
2017-11-09T10:33:40.469Z,10.93
2017-11-09T10:36:09.345Z,12.17
2017-11-09T10:38:38.238Z,11.40
2017-11-09T10:41:07.107Z,15.70
2017-11-09T10:43:35.985Z,20.43
2017-11-09T10:46:04.849Z,17.50
2017-11-09T10:48:33.961Z,16.47
2017-11-09T10:51:02.885Z,16.83
2017-11-09T10:53:31.824Z,19.83
2017-11-09T10:56:00.717Z,14.80
2017-11-09T10:58:29.568Z,14.00
2017-11-09T11:00:58.460Z,14.87
2017-11-09T11:03:27.381Z,10.73
2017-11-09T11:05:56.279Z,14.80
2017-11-09T11:08:25.769Z,14.37
2017-11-09T11:10:54.640Z,40.87
2017-11-09T11:13:24.188Z,12.83
2017-11-09T11:15:53.111Z,10.03
2017-11-09T11:18:22.014Z,8.93
2017-11-09T11:20:50.887Z,6.80
2017-11-09T11:23:19.736Z,5.90
2017-11-09T11:25:48.603Z,28.03
2017-11-09T11:28:17.471Z,10.63
2017-11-09T11:30:46.339Z,14.40
2017-11-09T11:33:15.224Z,13.27
2017-11-09T11:35:44.084Z,9.80
2017-11-09T11:38:12.952Z,13.97
2017-11-09T11:40:41.801Z,7.37
2017-11-09T11:43:10.664Z,14.00
2017-11-09T11:45:39.519Z,10.63
2017-11-09T11:48:08.435Z,15.10
2017-11-09T11:50:37.308Z,8.30
2017-11-09T11:53:06.192Z,8.90
2017-11-09T11:55:35.076Z,8.20
2017-11-09T11:58:04.111Z,9.57
2017-11-09T12:00:32.971Z,10.83
2017-11-09T12:03:01.831Z,9.90
2017-11-09T12:05:30.728Z,13.00
2017-11-09T12:07:59.593Z,16.10
2017-11-09T12:10:28.574Z,8.00
2017-11-09T12:12:57.470Z,10.70
2017-11-09T12:15:26.392Z,12.37
2017-11-09T12:17:55.247Z,16.80
2017-11-09T12:20:24.145Z,16.20
2017-11-09T12:22:53.003Z,17.40
2017-11-09T12:25:21.874Z,13.00
2017-11-09T12:27:50.740Z,16.33
2017-11-09T12:30:19.628Z,22.13
2017-11-09T12:32:48.521Z,18.30
2017-11-09T12:35:17.428Z,15.30
2017-11-09T12:37:46.271Z,15.73
2017-11-09T12:40:15.140Z,16.30
2017-11-09T12:42:44.015Z,16.50
2017-11-09T12:45:12.906Z,19.90
2017-11-09T12:47:41.789Z,20.27
2017-11-09T12:50:10.652Z,14.77
2017-11-09T12:52:39.533Z,14.20
2017-11-09T12:55:08.405Z,14.67
2017-11-09T12:57:37.274Z,15.47
2017-11-09T13:00:06.137Z,12.77
2017-11-09T13:02:35.048Z,17.43
2017-11-09T13:05:03.919Z,15.83
2017-11-09T13:07:32.786Z,15.00
2017-11-09T13:10:01.678Z,14.80
2017-11-09T13:12:30.580Z,16.47
2017-11-09T13:14:59.453Z,20.00
2017-11-09T13:17:28.314Z,16.03
2017-11-09T13:19:57.208Z,24.63
2017-11-09T13:22:26.057Z,16.03
2017-11-09T13:24:54.950Z,17.90
2017-11-09T13:27:23.803Z,21.70
2017-11-09T13:29:52.722Z,19.43
2017-11-09T13:32:21.596Z,22.23
2017-11-09T13:34:50.467Z,16.90
2017-11-09T13:37:19.357Z,17.37
2017-11-09T13:39:48.230Z,15.40
2017-11-09T13:42:17.109Z,16.37
2017-11-09T13:44:45.973Z,15.13
2017-11-09T13:47:14.860Z,14.50
2017-11-09T13:49:43.724Z,17.20
2017-11-09T13:52:12.807Z,21.30
2017-11-09T13:54:41.689Z,17.90
2017-11-09T13:57:10.568Z,18.83
2017-11-09T13:59:39.449Z,16.83
2017-11-09T14:02:08.320Z,25.40
2017-11-09T14:04:37.219Z,21.40
2017-11-09T14:07:06.088Z,15.00
2017-11-09T14:09:34.980Z,22.20
2017-11-09T14:12:03.840Z,18.10
2017-11-09T14:14:32.715Z,18.77
2017-11-09T14:17:01.581Z,18.73
2017-11-09T14:19:30.521Z,19.97
2017-11-09T14:21:59.388Z,22.20
2017-11-09T14:24:28.280Z,16.57
2017-11-09T14:26:57.147Z,19.17
2017-11-09T14:29:25.994Z,24.57
2017-11-09T14:31:54.884Z,19.00
2017-11-09T14:34:23.755Z,23.83
2017-11-09T14:36:52.647Z,19.17
2017-11-09T14:39:21.514Z,25.27
2017-11-09T14:41:50.404Z,23.30
2017-11-09T14:44:19.279Z,23.27
2017-11-09T14:46:48.179Z,21.10
2017-11-09T14:49:17.042Z,21.60
2017-11-09T14:51:45.949Z,21.13
2017-11-09T14:54:14.836Z,21.30
2017-11-09T14:56:43.694Z,20.10
2017-11-09T14:59:12.581Z,17.63
2017-11-09T15:01:41.508Z,20.30
2017-11-09T15:04:10.395Z,22.70
2017-11-09T15:06:39.256Z,21.87
2017-11-09T15:09:08.141Z,20.17
2017-11-09T15:11:36.993Z,34.20
2017-11-09T15:14:05.864Z,32.93
2017-11-09T15:16:34.724Z,27.83
2017-11-09T15:19:03.613Z,26.20
2017-11-09T15:21:32.468Z,21.13
2017-11-09T15:24:01.394Z,22.63
2017-11-09T15:26:30.273Z,18.10
2017-11-09T15:28:59.140Z,31.10
2017-11-09T15:31:28.016Z,31.07
2017-11-09T15:33:56.897Z,24.53
2017-11-09T15:36:28.668Z,31.63
2017-11-09T15:38:57.557Z,21.77
2017-11-09T15:41:26.422Z,26.23
2017-11-09T15:43:55.301Z,29.10
2017-11-09T15:46:24.187Z,26.33
2017-11-09T15:48:53.056Z,23.53
2017-11-09T15:51:21.932Z,21.57
2017-11-09T15:53:50.807Z,22.73
2017-11-09T15:56:20.229Z,30.30
2017-11-09T15:58:49.149Z,27.27
2017-11-09T16:01:18.097Z,21.07
2017-11-09T16:03:46.965Z,36.73
2017-11-09T16:06:15.851Z,24.47
2017-11-09T16:08:44.760Z,23.87
2017-11-09T16:11:13.629Z,25.07
2017-11-09T16:13:42.524Z,22.20
2017-11-09T16:16:11.431Z,23.07
2017-11-09T16:18:43.261Z,24.33
2017-11-09T16:21:12.154Z,28.97
2017-11-09T16:23:41.027Z,22.63
2017-11-09T16:26:09.902Z,23.83
2017-11-09T16:28:38.788Z,25.50
2017-11-09T16:31:07.658Z,25.00
2017-11-09T16:33:36.511Z,25.77
2017-11-09T16:36:05.384Z,27.77
2017-11-09T16:38:34.289Z,22.73
2017-11-09T16:41:03.182Z,25.20
2017-11-09T16:43:32.047Z,25.92
2017-11-09T16:46:00.913Z,23.17
2017-11-09T16:48:29.795Z,29.00
2017-11-09T16:50:58.652Z,24.02
2017-11-09T16:53:27.561Z,25.37
2017-11-09T16:55:56.434Z,23.53
2017-11-09T16:58:25.312Z,25.70
2017-11-09T17:00:54.190Z,29.03
2017-11-09T17:03:23.081Z,29.17
2017-11-09T17:05:51.940Z,28.27
2017-11-09T17:08:20.826Z,23.30
2017-11-09T17:10:49.706Z,25.70
2017-11-09T17:13:18.639Z,27.00
2017-11-09T17:15:47.522Z,31.73
2017-11-09T17:18:22.095Z,27.20
2017-11-09T17:20:50.954Z,31.60
2017-11-09T17:23:19.821Z,27.93
2017-11-09T17:25:48.709Z,29.23
2017-11-09T17:28:17.603Z,30.27
2017-11-09T17:30:46.467Z,31.53
2017-11-09T17:33:15.399Z,32.17
2017-11-09T17:35:44.264Z,30.53
2017-11-09T17:38:13.138Z,28.13
2017-11-09T17:40:42.010Z,28.77
2017-11-09T17:43:10.875Z,25.23
2017-11-09T17:45:39.747Z,32.20
2017-11-09T17:48:08.595Z,29.33
2017-11-09T17:50:37.471Z,27.57
2017-11-09T17:53:06.329Z,29.23
2017-11-09T17:55:35.201Z,34.30
2017-11-09T17:58:04.072Z,29.93
2017-11-09T18:00:32.954Z,36.53
2017-11-09T18:03:04.771Z,30.67
2017-11-09T18:05:33.672Z,26.10
2017-11-09T18:08:02.536Z,29.83
2017-11-09T18:10:31.511Z,36.77
2017-11-09T18:13:00.365Z,33.07
2017-11-09T18:15:29.252Z,29.10
2017-11-09T18:17:58.133Z,31.57
2017-11-09T18:20:27.065Z,29.43
2017-11-09T18:23:02.555Z,33.33
2017-11-09T18:25:31.485Z,31.10
2017-11-09T18:28:00.349Z,34.23
2017-11-09T18:30:29.211Z,35.83
2017-11-09T18:32:58.080Z,31.87
2017-11-09T18:35:26.933Z,34.60
2017-11-09T18:37:55.815Z,29.90
2017-11-09T18:40:24.701Z,39.47
2017-11-09T18:42:53.594Z,33.60
2017-11-09T18:45:22.639Z,33.93
2017-11-09T18:47:51.588Z,35.20
2017-11-09T18:50:20.465Z,34.93
2017-11-09T18:52:49.555Z,33.97
2017-11-09T18:55:18.422Z,31.90
2017-11-09T18:57:47.284Z,38.87
2017-11-09T19:00:16.241Z,36.80
2017-11-09T19:02:47.907Z,37.70
2017-11-09T19:05:16.792Z,35.83
2017-11-09T19:07:45.664Z,42.13
2017-11-09T19:10:14.557Z,34.43
2017-11-09T19:12:43.416Z,37.90
2017-11-09T19:15:12.339Z,40.50
2017-11-09T19:17:41.207Z,33.13
2017-11-09T19:20:10.061Z,31.50
2017-11-09T19:22:38.972Z,28.87
2017-11-09T19:25:07.916Z,28.43
2017-11-09T19:27:36.773Z,28.97
2017-11-09T19:30:05.656Z,37.53
2017-11-09T19:32:34.531Z,30.10
2017-11-09T19:35:03.551Z,34.60
2017-11-09T19:37:32.431Z,36.20
2017-11-09T19:40:01.284Z,36.30
2017-11-09T19:42:30.156Z,28.23
2017-11-09T19:44:59.029Z,32.30
2017-11-09T19:47:27.913Z,32.60
2017-11-09T19:49:56.783Z,37.00
2017-11-09T19:52:25.660Z,31.73
2017-11-09T19:54:54.532Z,31.03
2017-11-09T19:57:23.443Z,32.77
2017-11-09T19:59:52.323Z,32.30
2017-11-09T20:02:21.249Z,31.50
2017-11-09T20:04:50.135Z,31.00
2017-11-09T20:07:19.018Z,32.30
2017-11-09T20:09:47.875Z,34.23
2017-11-09T20:12:16.770Z,30.70
2017-11-09T20:14:45.646Z,33.93
2017-11-09T20:17:14.580Z,32.40
2017-11-09T20:19:43.433Z,34.37
2017-11-09T20:22:12.353Z,40.80
2017-11-09T20:24:41.221Z,39.13
2017-11-09T20:27:10.148Z,31.70
2017-11-09T20:29:39.038Z,32.53
2017-11-09T20:32:07.904Z,35.63
2017-11-09T20:34:36.847Z,32.10
2017-11-09T20:37:05.724Z,38.20
2017-11-09T20:39:34.649Z,32.93
2017-11-09T20:42:03.506Z,32.83
2017-11-09T20:44:32.374Z,32.77
2017-11-09T20:47:01.240Z,29.93
2017-11-09T20:49:34.094Z,36.63
2017-11-09T20:52:02.972Z,30.93
2017-11-09T20:54:31.890Z,40.03
2017-11-09T20:57:00.747Z,40.80
2017-11-09T20:59:29.630Z,35.40
2017-11-09T21:01:58.510Z,32.30
2017-11-09T21:04:27.388Z,39.00
2017-11-09T21:06:56.263Z,43.07
2017-11-09T21:09:25.124Z,32.63
2017-11-09T21:11:54.034Z,35.30
2017-11-09T21:14:22.887Z,39.60
2017-11-09T21:16:51.778Z,35.17
2017-11-09T21:19:20.652Z,34.43
2017-11-09T21:21:49.557Z,34.53
2017-11-09T21:24:18.422Z,35.20
2017-11-09T21:26:47.294Z,40.73
2017-11-09T21:29:16.259Z,40.93
2017-11-09T21:31:45.193Z,34.47
2017-11-09T21:34:14.097Z,34.90
2017-11-09T21:36:42.961Z,30.20
2017-11-09T21:39:11.830Z,42.57
2017-11-09T21:41:40.727Z,31.60
2017-11-09T21:44:09.599Z,32.80
2017-11-09T21:46:38.468Z,37.07
2017-11-09T21:49:07.583Z,37.40
2017-11-09T21:51:36.448Z,35.60
2017-11-09T21:54:05.861Z,33.90
2017-11-09T21:56:34.750Z,36.03
2017-11-09T21:59:03.612Z,38.43
2017-11-09T22:01:32.525Z,32.53
2017-11-09T22:04:01.385Z,35.20
2017-11-09T22:06:30.257Z,75.30
2017-11-09T22:08:59.116Z,37.17
2017-11-09T22:11:28.004Z,32.03
2017-11-09T22:13:56.866Z,42.20
2017-11-09T22:16:25.743Z,34.43
2017-11-09T22:18:54.644Z,36.40
2017-11-09T22:21:23.763Z,33.63
2017-11-09T22:23:52.675Z,37.77
2017-11-09T22:26:21.532Z,39.87
2017-11-09T22:28:50.415Z,33.73
2017-11-09T22:31:19.262Z,32.70
2017-11-09T22:33:48.154Z,35.53
2017-11-09T22:36:17.012Z,35.70
2017-11-09T22:38:45.889Z,35.63
2017-11-09T22:41:14.777Z,38.40
2017-11-09T22:43:43.682Z,31.60
2017-11-09T22:46:12.543Z,34.53
2017-11-09T22:48:41.416Z,31.97
2017-11-09T22:51:10.308Z,33.53
2017-11-09T22:53:39.164Z,43.43
2017-11-09T22:56:08.064Z,63.60
2017-11-09T22:58:36.953Z,42.70
2017-11-09T23:01:05.987Z,35.93
2017-11-09T23:03:34.890Z,31.87
2017-11-09T23:06:03.780Z,30.13
2017-11-09T23:08:32.662Z,34.00
2017-11-09T23:11:01.564Z,34.90
2017-11-09T23:13:30.537Z,40.30
2017-11-09T23:15:59.412Z,34.30
2017-11-09T23:18:28.262Z,34.47
2017-11-09T23:20:57.156Z,33.73
2017-11-09T23:23:26.020Z,33.93
2017-11-09T23:25:54.902Z,32.03
2017-11-09T23:28:23.793Z,28.60
2017-11-09T23:30:52.667Z,36.47
2017-11-09T23:33:21.532Z,30.10
2017-11-09T23:35:50.412Z,30.33
2017-11-09T23:38:19.270Z,33.77
2017-11-09T23:40:48.205Z,35.67
2017-11-09T23:43:17.076Z,32.90
2017-11-09T23:45:45.939Z,37.57
2017-11-09T23:48:14.821Z,35.33
2017-11-09T23:50:43.683Z,31.27
2017-11-09T23:53:12.583Z,31.40
2017-11-09T23:55:41.455Z,28.70
2017-11-09T23:58:10.338Z,30.63
